createdAt,value
2022-12-03T00:03:44.977Z,7.35
2022-12-03T00:08:47.471Z,7.53
2022-12-03T00:13:49.931Z,7.57
2022-12-03T00:18:52.234Z,7.47
2022-12-03T00:23:55.012Z,6.55
2022-12-03T00:28:57.906Z,6.90
2022-12-03T00:34:00.318Z,6.55
2022-12-03T00:39:02.844Z,7.45
2022-12-03T00:44:04.999Z,7.55
2022-12-03T00:49:07.088Z,6.50
2022-12-03T00:54:10.314Z,7.47
2022-12-03T00:59:12.493Z,7.15
2022-12-03T01:04:15.243Z,7.75
2022-12-03T01:09:17.328Z,7.75
2022-12-03T01:14:20.589Z,7.43
2022-12-03T01:19:22.624Z,6.88
2022-12-03T01:24:24.631Z,6.28
2022-12-03T01:29:27.214Z,7.63
2022-12-03T01:34:52.942Z,6.93
2022-12-03T01:39:59.710Z,6.35
2022-12-03T01:45:02.859Z,6.55
2022-12-03T01:50:43.543Z,6.03
2022-12-03T01:55:48.880Z,6.50
2022-12-03T02:00:51.257Z,6.10
2022-12-03T02:05:53.564Z,6.07
2022-12-03T02:10:57.909Z,5.28
2022-12-03T02:16:00.199Z,5.20
2022-12-03T02:21:11.401Z,5.30
2022-12-03T02:26:13.579Z,5.47
2022-12-03T02:31:15.718Z,4.95
2022-12-03T02:36:17.778Z,4.90
2022-12-03T02:41:44.408Z,5.00
2022-12-03T02:46:46.826Z,5.00
2022-12-03T02:51:49.615Z,4.38
2022-12-03T02:56:51.864Z,4.70
2022-12-03T03:01:56.059Z,4.53
2022-12-03T03:06:58.297Z,4.90
2022-12-03T03:12:00.866Z,4.65
2022-12-03T03:17:04.190Z,5.15
2022-12-03T03:22:06.652Z,5.22
2022-12-03T03:27:09.022Z,6.63
2022-12-03T03:32:11.940Z,5.75
2022-12-03T03:37:14.038Z,5.38
2022-12-03T03:42:16.391Z,4.85
2022-12-03T03:47:18.807Z,5.00
2022-12-03T03:52:21.210Z,4.90
2022-12-03T03:57:26.079Z,4.43
2022-12-03T04:02:29.334Z,5.03
2022-12-03T04:07:31.508Z,3.97
2022-12-03T04:12:52.585Z,3.88
2022-12-03T04:18:27.378Z,4.65
2022-12-03T04:23:31.238Z,3.65
2022-12-03T04:28:51.692Z,3.88
2022-12-03T04:34:12.585Z,4.03
2022-12-03T04:39:14.703Z,3.90
2022-12-03T04:44:35.420Z,3.78
2022-12-03T04:49:48.526Z,4.90
2022-12-03T04:54:51.001Z,4.82
2022-12-03T04:59:53.166Z,4.40
2022-12-03T05:04:55.378Z,4.35
2022-12-03T05:09:57.684Z,4.28
2022-12-03T05:14:59.751Z,4.47
2022-12-03T05:20:20.420Z,3.78
2022-12-03T05:25:22.611Z,4.47
2022-12-03T05:30:24.631Z,4.50
2022-12-03T05:35:26.977Z,5.93
2022-12-03T05:40:29.185Z,5.85
2022-12-03T05:45:35.019Z,5.07
2022-12-03T05:50:38.975Z,5.28
2022-12-03T05:55:50.006Z,5.35
2022-12-03T06:00:52.437Z,5.10
2022-12-03T06:05:55.040Z,5.18
2022-12-03T06:10:57.346Z,4.95
2022-12-03T06:15:59.540Z,4.53
2022-12-03T06:21:01.964Z,5.15
2022-12-03T06:26:03.968Z,4.90
2022-12-03T06:31:06.574Z,4.55
2022-12-03T06:36:09.167Z,4.18
2022-12-03T06:41:11.743Z,4.60
2022-12-03T06:46:14.322Z,4.03
2022-12-03T06:51:16.453Z,3.92
2022-12-03T06:56:22.125Z,4.07
2022-12-03T07:01:25.393Z,4.18
2022-12-03T07:06:42.835Z,4.22
2022-12-03T07:11:44.817Z,3.88
2022-12-03T07:16:49.864Z,3.78
2022-12-03T07:21:52.072Z,4.13
2022-12-03T07:26:54.461Z,4.38
2022-12-03T07:31:56.589Z,4.38
2022-12-03T07:36:59.633Z,4.43
2022-12-03T07:42:03.154Z,4.38
2022-12-03T07:47:05.361Z,4.13
2022-12-03T07:52:07.766Z,3.65
2022-12-03T07:57:10.049Z,3.88
2022-12-03T08:02:13.900Z,3.92
2022-12-03T08:07:21.619Z,4.70
2022-12-03T08:12:40.307Z,4.22
2022-12-03T08:17:43.362Z,4.95
2022-12-03T08:22:47.235Z,4.60
2022-12-03T08:27:49.729Z,4.38
2022-12-03T08:32:52.449Z,4.63
2022-12-03T08:38:14.358Z,4.90
2022-12-03T08:43:28.187Z,5.15
2022-12-03T08:48:42.811Z,7.03
2022-12-03T08:53:56.815Z,5.70
2022-12-03T08:59:25.546Z,5.40
2022-12-03T09:04:39.354Z,5.35
2022-12-03T09:09:41.741Z,3.85
2022-12-03T09:14:44.053Z,5.15
2022-12-03T09:19:46.586Z,4.05
2022-12-03T09:24:48.597Z,4.47
2022-12-03T09:29:51.028Z,4.93
2022-12-03T09:34:54.542Z,5.93
2022-12-03T09:39:56.758Z,5.00
2022-12-03T09:44:59.530Z,5.45
2022-12-03T09:50:02.350Z,5.20
2022-12-03T09:55:12.583Z,4.93
2022-12-03T10:00:19.390Z,6.32
2022-12-03T10:05:22.562Z,5.10
2022-12-03T10:10:25.736Z,6.32
2022-12-03T10:15:28.414Z,6.72
2022-12-03T10:20:30.721Z,6.68
2022-12-03T10:25:32.754Z,7.18
2022-12-03T10:30:39.123Z,7.32
2022-12-03T10:35:44.171Z,6.63
2022-12-03T10:40:46.762Z,8.05
2022-12-03T10:45:50.172Z,16.40
2022-12-03T10:50:55.309Z,9.48
2022-12-03T10:55:59.912Z,10.80
2022-12-03T11:01:03.939Z,10.75
2022-12-03T11:06:06.098Z,9.20
2022-12-03T11:11:18.670Z,18.52
2022-12-03T11:16:39.629Z,11.02
2022-12-03T11:22:13.781Z,9.73
2022-12-03T11:27:19.234Z,9.45
2022-12-03T11:32:39.563Z,7.20
2022-12-03T11:37:41.621Z,6.25
2022-12-03T11:42:44.384Z,5.25
2022-12-03T11:48:08.600Z,4.47
2022-12-03T11:53:26.191Z,5.13
2022-12-03T11:58:30.567Z,3.80
2022-12-03T12:03:34.842Z,4.35
2022-12-03T12:08:52.736Z,4.47
2022-12-03T12:19:30.803Z,5.32
2022-12-03T12:24:55.370Z,4.57
2022-12-03T12:29:59.391Z,5.18
2022-12-03T12:35:16.226Z,5.05
2022-12-03T12:40:19.139Z,6.85
2022-12-03T12:45:26.589Z,4.80
2022-12-03T12:50:31.161Z,4.25
2022-12-03T12:55:33.153Z,4.57
2022-12-03T13:00:35.887Z,7.82
2022-12-03T13:05:43.151Z,4.80
2022-12-03T13:10:45.561Z,6.13
2022-12-03T13:16:05.894Z,7.63
2022-12-03T13:21:20.524Z,5.28
2022-12-03T13:26:38.750Z,3.78
2022-12-03T13:31:44.329Z,3.72
2022-12-03T13:36:50.716Z,3.63
2022-12-03T13:42:17.994Z,3.47
2022-12-03T13:47:22.188Z,3.03
2022-12-03T13:52:26.737Z,4.43
2022-12-03T14:02:30.979Z,4.00
2022-12-03T14:07:33.307Z,3.55
2022-12-03T14:12:35.514Z,3.63
2022-12-03T14:17:37.894Z,3.22
2022-12-03T14:22:40.138Z,3.08
2022-12-03T14:27:42.460Z,2.78
2022-12-03T14:32:44.437Z,3.03
2022-12-03T14:37:46.459Z,2.90
2022-12-03T14:42:48.648Z,3.67
2022-12-03T14:47:54.347Z,4.13
2022-12-03T14:53:01.020Z,6.05
2022-12-03T14:58:03.796Z,4.78
2022-12-03T15:03:05.776Z,3.95
2022-12-03T15:08:09.601Z,3.55
2022-12-03T15:13:11.862Z,5.20
2022-12-03T15:18:13.820Z,4.65
2022-12-03T15:23:16.269Z,5.35
2022-12-03T15:28:18.503Z,5.20
2022-12-03T15:33:20.601Z,5.97
2022-12-03T15:38:22.979Z,6.53
2022-12-03T15:43:25.431Z,6.88
2022-12-03T15:48:27.487Z,6.07
2022-12-03T15:53:29.842Z,7.03
2022-12-03T15:58:32.234Z,5.75
2022-12-03T16:03:35.243Z,6.40
2022-12-03T16:08:37.372Z,6.53
2022-12-03T16:13:39.923Z,5.88
2022-12-03T16:18:41.835Z,6.30
2022-12-03T16:23:43.987Z,12.00
2022-12-03T16:28:46.301Z,9.63
2022-12-03T16:33:48.587Z,9.55
2022-12-03T16:38:51.824Z,7.50
2022-12-03T16:43:54.693Z,6.00
2022-12-03T16:48:58.071Z,7.07
2022-12-03T16:54:00.389Z,9.20
2022-12-03T16:59:03.125Z,9.57
2022-12-03T17:04:05.200Z,13.45
2022-12-03T17:09:07.405Z,13.75
2022-12-03T17:14:09.691Z,11.32
2022-12-03T17:19:12.025Z,11.88
2022-12-03T17:24:14.268Z,11.88
2022-12-03T17:29:16.717Z,11.65
2022-12-03T17:34:18.906Z,12.43
2022-12-03T17:39:23.175Z,13.38
2022-12-03T17:44:25.629Z,14.50
2022-12-03T17:49:31.721Z,14.25
2022-12-03T17:54:49.368Z,14.30
2022-12-03T17:59:59.804Z,12.30
2022-12-03T18:05:02.480Z,14.90
2022-12-03T18:10:08.992Z,15.68
2022-12-03T18:15:11.736Z,16.58
2022-12-03T18:20:16.990Z,15.57
2022-12-03T18:25:19.482Z,15.30
2022-12-03T18:30:22.305Z,15.15
2022-12-03T18:35:29.389Z,14.05
2022-12-03T18:40:31.615Z,14.23
2022-12-03T18:45:34.193Z,13.50
2022-12-03T18:50:36.393Z,13.48
2022-12-03T18:55:39.786Z,12.88
2022-12-03T19:00:42.970Z,12.60
2022-12-03T19:05:45.257Z,12.63
2022-12-03T19:10:56.159Z,12.95
2022-12-03T19:16:03.365Z,12.07
2022-12-03T19:21:11.145Z,13.23
2022-12-03T19:26:15.002Z,12.85
2022-12-03T19:31:19.707Z,13.70
2022-12-03T19:36:26.300Z,13.13
2022-12-03T19:41:30.932Z,12.90
2022-12-03T19:46:33.522Z,13.68
2022-12-03T19:51:36.042Z,12.38
2022-12-03T19:56:40.183Z,13.10
2022-12-03T20:01:44.320Z,12.77
2022-12-03T20:06:47.935Z,12.68
2022-12-03T20:11:52.169Z,13.60
2022-12-03T20:16:55.351Z,12.13
2022-12-03T20:22:02.791Z,11.10
2022-12-03T20:27:07.809Z,11.63
2022-12-03T20:32:22.645Z,12.32
2022-12-03T20:37:26.996Z,12.52
2022-12-03T20:42:30.247Z,12.05
2022-12-03T20:47:34.598Z,12.38
2022-12-03T20:52:38.385Z,12.02
2022-12-03T20:57:43.990Z,13.13
2022-12-03T21:02:46.991Z,12.52
2022-12-03T21:07:51.205Z,13.40
2022-12-03T21:12:53.189Z,13.27
2022-12-03T21:17:55.807Z,12.25
2022-12-03T21:22:59.557Z,13.10
2022-12-03T21:28:10.487Z,12.00
2022-12-03T21:33:12.529Z,12.45
2022-12-03T21:38:15.055Z,12.60
2022-12-03T21:43:18.141Z,14.13
2022-12-03T21:48:20.976Z,13.57
2022-12-03T21:53:23.946Z,13.93
2022-12-03T21:58:26.346Z,14.43
2022-12-03T22:03:28.918Z,14.68
2022-12-03T22:08:32.082Z,14.27
2022-12-03T22:13:34.602Z,14.35
2022-12-03T22:18:38.563Z,13.63
2022-12-03T22:23:40.746Z,13.77
2022-12-03T22:28:48.406Z,15.60
2022-12-03T22:33:51.121Z,19.25
2022-12-03T22:38:54.349Z,19.27
2022-12-03T22:43:56.573Z,19.00
2022-12-03T22:49:03.476Z,17.77
2022-12-03T22:54:10.764Z,16.45
2022-12-03T22:59:13.399Z,14.68
2022-12-03T23:04:16.008Z,14.93
2022-12-03T23:09:19.135Z,14.48
2022-12-03T23:14:21.206Z,15.60
2022-12-03T23:19:23.349Z,13.57
2022-12-03T23:24:26.731Z,15.02
2022-12-03T23:29:28.766Z,14.32
2022-12-03T23:34:31.214Z,14.70
2022-12-03T23:39:33.160Z,13.40
2022-12-03T23:44:35.018Z,13.23
2022-12-03T23:49:37.939Z,13.23
2022-12-03T23:54:40.611Z,12.05
2022-12-03T23:59:42.942Z,11.60
